createdAt,value
2022-10-17T04:02:13.015Z,8.98
2022-10-17T04:05:16.157Z,9.73
2022-10-17T04:08:18.671Z,9.45
2022-10-17T04:11:25.616Z,9.95
2022-10-17T04:14:28.590Z,9.50
2022-10-17T04:17:37.220Z,10.18
2022-10-17T04:20:41.062Z,9.63
2022-10-17T04:23:43.955Z,10.35
2022-10-17T04:26:51.231Z,9.02
2022-10-17T04:29:54.113Z,9.02
2022-10-17T04:32:56.660Z,8.23
2022-10-17T04:36:00.533Z,9.35
2022-10-17T04:39:05.099Z,9.05
2022-10-17T04:42:08.395Z,9.18
2022-10-17T04:45:11.104Z,8.93
2022-10-17T04:48:14.067Z,9.50
2022-10-17T04:51:21.781Z,9.38
2022-10-17T04:54:31.922Z,9.32
2022-10-17T04:57:35.724Z,9.10
2022-10-17T05:00:39.169Z,9.50
2022-10-17T05:03:42.365Z,10.10
2022-10-17T05:06:45.114Z,9.63
2022-10-17T05:09:48.895Z,9.30
2022-10-17T05:12:52.125Z,9.07
2022-10-17T05:15:58.848Z,9.20
2022-10-17T05:19:02.461Z,8.50
2022-10-17T05:22:06.659Z,9.00
2022-10-17T05:25:09.830Z,9.55
2022-10-17T05:28:12.444Z,9.27
2022-10-17T05:31:15.788Z,9.02
2022-10-17T05:34:18.421Z,9.57
2022-10-17T05:37:21.238Z,9.25
2022-10-17T05:40:24.627Z,9.48
2022-10-17T05:43:28.403Z,9.60
2022-10-17T05:46:31.116Z,9.68
2022-10-17T05:49:44.982Z,9.55
2022-10-17T05:52:53.733Z,10.00
2022-10-17T05:55:58.848Z,9.27
2022-10-17T05:59:01.650Z,10.00
2022-10-17T06:02:04.736Z,9.02
2022-10-17T06:05:08.039Z,9.75
2022-10-17T06:08:10.646Z,9.65
2022-10-17T06:11:14.045Z,9.40
2022-10-17T06:14:16.624Z,9.23
2022-10-17T06:17:19.525Z,10.32
2022-10-17T06:20:22.038Z,9.13
2022-10-17T06:23:25.594Z,10.23
2022-10-17T06:26:28.419Z,10.25
2022-10-17T06:29:34.956Z,9.82
2022-10-17T06:32:37.505Z,9.40
2022-10-17T06:35:41.202Z,9.10
2022-10-17T06:38:43.684Z,10.20
2022-10-17T06:41:48.210Z,9.57
2022-10-17T06:44:53.055Z,10.05
2022-10-17T06:47:56.037Z,9.27
2022-10-17T06:51:01.082Z,10.32
2022-10-17T06:54:04.692Z,10.00
2022-10-17T06:57:07.373Z,10.50
2022-10-17T07:00:11.604Z,10.60
2022-10-17T07:03:14.479Z,10.20
2022-10-17T07:06:18.085Z,9.93
2022-10-17T07:09:21.186Z,10.60
2022-10-17T07:12:24.403Z,10.52
2022-10-17T07:15:27.889Z,10.55
2022-10-17T07:18:31.663Z,10.65
2022-10-17T07:21:36.703Z,11.00
2022-10-17T07:24:42.342Z,10.85
2022-10-17T07:27:49.196Z,10.40
2022-10-17T07:30:54.424Z,9.90
2022-10-17T07:33:59.611Z,10.50
2022-10-17T07:37:03.984Z,10.20
2022-10-17T07:40:08.188Z,10.50
2022-10-17T07:43:12.474Z,9.80
2022-10-17T07:46:15.458Z,9.43
2022-10-17T07:49:19.091Z,9.82
2022-10-17T07:52:21.797Z,9.82
2022-10-17T07:55:24.674Z,10.07
2022-10-17T07:58:28.748Z,10.25
2022-10-17T08:01:31.460Z,10.07
2022-10-17T08:04:34.855Z,10.45
2022-10-17T08:07:37.392Z,9.85
2022-10-17T08:10:40.222Z,10.00
2022-10-17T08:13:43.350Z,10.70
2022-10-17T08:16:46.169Z,9.32
2022-10-17T08:19:48.624Z,10.32
2022-10-17T08:23:03.828Z,10.20
2022-10-17T08:26:10.569Z,10.90
2022-10-17T08:32:26.376Z,10.00
2022-10-17T08:35:29.399Z,10.38
2022-10-17T08:38:35.288Z,10.15
2022-10-17T08:41:57.456Z,9.73
2022-10-17T08:45:42.266Z,11.40
2022-10-17T08:48:47.902Z,9.70
2022-10-17T08:51:58.035Z,9.77
2022-10-17T08:55:01.108Z,10.48
2022-10-17T08:58:05.557Z,9.88
2022-10-17T09:01:25.515Z,9.30
2022-10-17T09:05:06.075Z,9.93
2022-10-17T09:08:17.817Z,10.38
2022-10-17T09:11:47.062Z,9.82
2022-10-17T09:15:03.061Z,9.18
2022-10-17T09:18:21.130Z,9.40
2022-10-17T09:21:49.489Z,9.70
2022-10-17T09:25:06.887Z,8.63
2022-10-17T09:28:09.626Z,9.00
2022-10-17T09:31:20.041Z,8.43
2022-10-17T09:34:26.752Z,9.38
2022-10-17T09:37:32.935Z,8.50
2022-10-17T09:40:36.679Z,8.38
2022-10-17T09:43:40.171Z,8.77
2022-10-17T09:47:03.466Z,8.20
2022-10-17T09:50:34.067Z,7.87
2022-10-17T09:53:40.677Z,7.80
2022-10-17T09:57:16.987Z,7.10
2022-10-17T10:00:38.033Z,7.45
2022-10-17T10:03:40.900Z,6.12
2022-10-17T10:07:05.821Z,4.90
2022-10-17T10:10:27.649Z,4.68
2022-10-17T10:13:33.263Z,5.25
2022-10-17T10:16:43.359Z,4.65
2022-10-17T10:19:50.847Z,5.20
2022-10-17T10:23:13.649Z,4.75
2022-10-17T10:26:25.872Z,4.78
2022-10-17T10:29:34.148Z,4.37
2022-10-17T10:32:37.689Z,4.18
2022-10-17T10:35:40.623Z,4.32
2022-10-17T10:38:53.612Z,4.60
2022-10-17T10:41:56.913Z,3.75
2022-10-17T10:45:29.120Z,4.40
2022-10-17T10:48:37.037Z,4.70
2022-10-17T10:51:48.583Z,4.45
2022-10-17T10:55:03.872Z,4.50
2022-10-17T10:58:27.505Z,4.30
2022-10-17T11:01:50.442Z,4.20
2022-10-17T11:05:00.521Z,4.37
2022-10-17T11:08:24.474Z,4.28
2022-10-17T11:11:34.518Z,3.97
2022-10-17T11:15:01.303Z,3.95
2022-10-17T11:18:07.041Z,3.78
2022-10-17T11:21:20.867Z,4.00
2022-10-17T11:24:59.684Z,4.00
2022-10-17T11:28:05.477Z,3.83
2022-10-17T11:31:12.737Z,4.30
2022-10-17T11:34:21.486Z,4.00
2022-10-17T11:37:29.409Z,4.32
2022-10-17T11:40:36.137Z,3.72
2022-10-17T11:43:53.310Z,4.10
2022-10-17T11:47:05.889Z,3.80
2022-10-17T11:54:19.020Z,3.87
2022-10-17T11:57:34.896Z,3.92
2022-10-17T12:04:15.681Z,3.70
2022-10-17T12:11:01.828Z,3.50
2022-10-17T12:14:39.093Z,3.12
2022-10-17T12:17:46.396Z,4.07
2022-10-17T12:21:00.180Z,3.28
2022-10-17T12:24:02.967Z,3.15
2022-10-17T12:27:38.500Z,2.75
2022-10-17T12:30:55.199Z,2.60
2022-10-17T12:34:00.479Z,2.87
2022-10-17T12:37:03.281Z,2.87
2022-10-17T12:40:34.778Z,2.95
2022-10-17T12:43:48.143Z,3.08
2022-10-17T12:46:51.942Z,3.30
2022-10-17T12:49:56.725Z,3.10
2022-10-17T12:53:06.438Z,3.47
2022-10-17T12:56:09.945Z,3.50
2022-10-17T12:59:20.521Z,3.35
2022-10-17T13:02:28.262Z,2.90
2022-10-17T13:05:34.889Z,3.83
2022-10-17T13:08:43.290Z,3.33
2022-10-17T13:11:46.007Z,3.22
2022-10-17T13:14:51.492Z,3.25
2022-10-17T13:17:59.087Z,3.28
2022-10-17T13:21:06.558Z,3.37
2022-10-17T13:24:41.903Z,2.90
2022-10-17T13:27:45.000Z,3.45
2022-10-17T13:30:49.563Z,3.22
2022-10-17T13:33:57.142Z,2.97
2022-10-17T13:37:10.680Z,3.12
2022-10-17T13:40:40.275Z,2.83
2022-10-17T13:43:42.039Z,3.10
2022-10-17T13:46:45.228Z,2.97
2022-10-17T13:49:49.546Z,3.17
2022-10-17T13:53:16.250Z,2.92
2022-10-17T13:56:29.932Z,2.75
2022-10-17T13:59:41.572Z,2.90
2022-10-17T14:02:44.154Z,3.20
2022-10-17T14:06:26.968Z,2.90
2022-10-17T14:09:30.882Z,3.28
2022-10-17T14:12:34.514Z,2.95
2022-10-17T14:15:37.530Z,3.12
2022-10-17T14:18:40.716Z,3.22
2022-10-17T14:21:48.968Z,3.72
2022-10-17T14:24:53.435Z,3.45
2022-10-17T14:28:09.178Z,3.28
2022-10-17T14:31:21.129Z,3.05
2022-10-17T14:34:29.852Z,3.20
2022-10-17T14:37:48.778Z,3.50
2022-10-17T14:41:00.944Z,3.37
2022-10-17T14:44:24.669Z,3.10
2022-10-17T14:47:42.761Z,3.70
2022-10-17T14:51:14.731Z,3.20
2022-10-17T14:54:24.012Z,3.45
2022-10-17T14:57:26.838Z,3.65
2022-10-17T15:00:29.594Z,3.50
2022-10-17T15:03:32.455Z,3.70
2022-10-17T15:06:35.484Z,3.30
2022-10-17T15:09:38.283Z,3.58
2022-10-17T15:12:51.012Z,3.87
2022-10-17T15:16:01.856Z,3.65
2022-10-17T15:19:04.455Z,3.87
2022-10-17T15:22:07.457Z,3.65
2022-10-17T15:25:10.022Z,4.07
2022-10-17T15:28:13.636Z,3.65
2022-10-17T15:31:19.007Z,3.92
2022-10-17T15:34:23.438Z,3.62
2022-10-17T15:37:26.256Z,3.65
2022-10-17T15:40:29.814Z,3.70
2022-10-17T15:43:32.357Z,3.12
2022-10-17T15:46:36.099Z,4.03
2022-10-17T15:49:39.197Z,3.83
2022-10-17T15:52:42.139Z,3.67
2022-10-17T15:55:44.763Z,4.18
2022-10-17T15:58:47.890Z,4.05
